TimeEDT,TemperatureF,Dew PointF,Humidity,Sea Level PressureIn,VisibilityMPH,Wind Direction,Wind SpeedMPH,Gust SpeedMPH,PrecipitationIn,Events,Conditions,WindDirDegrees,DateUTC
12:51 AM,72.0,69.1,91,29.85,10.0,SSW,5.8,-,N/A,,Mostly Cloudy,210,2013-09-01 04:51:00
1:02 AM,71.6,69.8,94,29.84,10.0,SSW,4.6,-,N/A,,Scattered Clouds,200,2013-09-01 05:02:00
1:31 AM,71.6,69.8,94,29.84,10.0,Calm,Calm,-,N/A,,Mostly Cloudy,0,2013-09-01 05:31:00
1:51 AM,72.0,69.1,91,29.84,10.0,Calm,Calm,-,N/A,,Overcast,0,2013-09-01 05:51:00
2:51 AM,73.0,70.0,90,29.83,10.0,SSW,6.9,-,N/A,,Overcast,210,2013-09-01 06:51:00
3:47 AM,73.4,69.8,88,29.85,9.0,WSW,4.6,-,N/A,Thunderstorm,Overcast,240,2013-09-01 07:47:00
3:48 AM,73.0,70.0,90,29.85,9.0,WSW,4.6,-,N/A,Thunderstorm,Overcast,240,2013-09-01 07:48:00
4:37 AM,73.4,71.6,94,29.85,3.0,Calm,Calm,-,0.06,Rain-Thunderstorm,Heavy Thunderstorms and Rain,0,2013-09-01 08:37:00
4:47 AM,71.6,69.8,94,29.86,7.0,SSW,6.9,-,0.08,Rain-Thunderstorm,Light Thunderstorms and Rain,210,2013-09-01 08:47:00
4:51 AM,72.0,69.1,91,29.86,10.0,SSW,8.1,-,0.08,Rain-Thunderstorm,Light Thunderstorms and Rain,200,2013-09-01 08:51:00
5:06 AM,71.6,69.8,94,29.86,9.0,SSW,6.9,-,0.01,Rain-Thunderstorm,Light Thunderstorms and Rain,200,2013-09-01 09:06:00
5:24 AM,71.6,69.8,94,29.85,8.0,South,6.9,-,0.01,Rain-Thunderstorm,Light Thunderstorms and Rain,170,2013-09-01 09:24:00
5:33 AM,71.6,69.8,94,29.84,6.0,South,8.1,-,0.01,Rain,Light Rain,170,2013-09-01 09:33:00
5:40 AM,71.6,69.8,94,29.85,6.0,South,9.2,-,0.02,Rain-Thunderstorm,Light Thunderstorms and Rain,190,2013-09-01 09:40:00
5:51 AM,70.0,68.0,93,29.85,7.0,SW,5.8,-,0.02,Rain-Thunderstorm,Light Thunderstorms and Rain,220,2013-09-01 09:51:00
6:09 AM,71.6,68.0,88,29.86,9.0,SSW,6.9,-,0.00,,Mostly Cloudy,210,2013-09-01 10:09:00
6:42 AM,71.6,69.8,94,29.88,9.0,Calm,Calm,-,0.00,,Overcast,0,2013-09-01 10:42:00
6:51 AM,71.1,69.1,93,29.88,9.0,SSE,5.8,-,0.00,,Overcast,160,2013-09-01 10:51:00
7:19 AM,71.6,69.8,94,29.87,5.0,South,5.8,-,0.00,Rain-Thunderstorm,Light Thunderstorms and Rain,170,2013-09-01 11:19:00
7:51 AM,72.0,70.0,93,29.88,3.0,South,9.2,-,0.01,Rain-Thunderstorm,Light Thunderstorms and Rain,190,2013-09-01 11:51:00
7:59 AM,71.6,69.8,94,29.88,2.5,SSE,9.2,-,0.02,Rain-Thunderstorm,Light Thunderstorms and Rain,160,2013-09-01 11:59:00
8:03 AM,71.6,69.8,94,29.89,1.5,SSE,10.4,-,0.06,Rain-Thunderstorm,Light Thunderstorms and Rain,160,2013-09-01 12:03:00
8:17 AM,71.6,69.8,94,29.88,2.0,SSW,12.7,-,0.14,Rain-Thunderstorm,Light Thunderstorms and Rain,200,2013-09-01 12:17:00
8:22 AM,71.6,69.8,94,29.88,1.5,SSW,11.5,-,0.21,Rain-Thunderstorm,Thunderstorms and Rain,200,2013-09-01 12:22:00
8:32 AM,71.6,71.6,100,29.88,3.0,SSW,8.1,-,0.27,Rain-Thunderstorm,Thunderstorms and Rain,210,2013-09-01 12:32:00
8:51 AM,72.0,71.1,97,29.88,1.5,WSW,5.8,-,0.31,Rain-Thunderstorm,Heavy Thunderstorms and Rain,240,2013-09-01 12:51:00
9:19 AM,71.6,71.6,100,29.88,3.0,South,5.8,-,0.18,Rain-Thunderstorm,Light Thunderstorms and Rain,190,2013-09-01 13:19:00
9:51 AM,72.0,71.1,97,29.88,3.0,South,9.2,-,0.22,Rain-Thunderstorm,Light Thunderstorms and Rain,190,2013-09-01 13:51:00
10:00 AM,73.4,71.6,94,29.88,2.5,SSW,5.8,-,0.01,Rain-Thunderstorm,Thunderstorms and Rain,200,2013-09-01 14:00:00
10:49 AM,73.4,71.6,94,29.89,3.0,South,4.6,-,0.03,Rain,Light Rain,170,2013-09-01 14:49:00
10:51 AM,73.0,72.0,96,29.89,3.0,South,4.6,-,0.03,Rain,Light Rain,170,2013-09-01 14:51:00
11:51 AM,75.0,73.0,94,29.89,6.0,South,8.1,-,0.00,,Overcast,170,2013-09-01 15:51:00
12:31 PM,77.0,73.4,89,29.88,10.0,SSW,8.1,-,N/A,,Mostly Cloudy,200,2013-09-01 16:31:00
12:51 PM,79.0,73.0,82,29.87,10.0,SSW,9.2,-,N/A,,Mostly Cloudy,210,2013-09-01 16:51:00
1:51 PM,81.0,73.0,77,29.87,10.0,South,11.5,-,N/A,,Mostly Cloudy,190,2013-09-01 17:51:00
2:51 PM,81.0,71.1,72,29.87,10.0,SW,10.4,19.6,N/A,,Overcast,230,2013-09-01 18:51:00
3:51 PM,80.1,71.1,74,29.86,10.0,SSW,11.5,19.6,N/A,,Overcast,210,2013-09-01 19:51:00
4:51 PM,79.0,72.0,79,29.86,10.0,South,12.7,-,N/A,,Overcast,170,2013-09-01 20:51:00
5:51 PM,78.1,72.0,81,29.87,10.0,SSW,9.2,-,N/A,,Overcast,200,2013-09-01 21:51:00
6:51 PM,75.9,71.1,85,29.87,10.0,South,5.8,-,N/A,,Mostly Cloudy,190,2013-09-01 22:51:00
7:51 PM,73.9,71.1,91,29.88,10.0,South,4.6,-,N/A,,Overcast,170,2013-09-01 23:51:00
8:51 PM,73.9,71.1,91,29.88,10.0,SE,5.8,-,N/A,,Overcast,140,2013-09-02 00:51:00
9:10 PM,73.4,71.6,94,29.89,10.0,SSE,8.1,-,N/A,,Overcast,160,2013-09-02 01:10:00
9:51 PM,73.0,71.1,93,29.89,8.0,South,8.1,-,N/A,,Overcast,170,2013-09-02 01:51:00
10:30 PM,73.4,71.6,94,29.90,4.0,South,6.9,-,N/A,,Overcast,170,2013-09-02 02:30:00
10:51 PM,73.0,71.1,93,29.89,3.0,SSE,5.8,-,N/A,,Overcast,160,2013-09-02 02:51:00
10:58 PM,73.4,71.6,94,29.89,2.0,South,9.2,-,N/A,,Overcast,170,2013-09-02 02:58:00
11:51 PM,72.0,71.1,97,29.88,3.0,South,5.8,-,N/A,,Overcast,170,2013-09-02 03:51:00